Time;durP1;ratioP1;P1;durP2;ratioP2;P2;SDS_P1;SDS_P2;PMS_P1;PMS_P2;Temp;Humidity;BMP_temperature;BMP_pressure;BME280_temperature;BME280_humidity;BME280_pressure;Samples;Min_cycle;Max_cycle;Signal;HPM_P1;HPM_P2
2023/05/11 00:01:49;;;;;;;16.95;9.40;;;14.70;99.90;;;;;;4979527;28;20050;-77
2023/05/11 00:04:15;;;;;;;14.88;8.82;;;14.70;99.90;;;;;;4979603;28;20045;-78
2023/05/11 00:06:40;;;;;;;18.23;10.30;;;14.70;99.90;;;;;;4996395;28;20113;-80
2023/05/11 00:09:08;;;;;;;25.52;11.27;;;14.70;99.90;;;;;;4996907;28;20038;-78
2023/05/11 00:11:34;;;;;;;21.10;10.38;;;14.80;99.90;;;;;;4996493;28;20332;-78
2023/05/11 00:14:00;;;;;;;16.85;10.40;;;14.60;99.90;;;;;;4996436;28;20428;-79
2023/05/11 00:16:25;;;;;;;16.33;8.93;;;14.60;99.90;;;;;;4979411;28;20073;-78
2023/05/11 00:18:51;;;;;;;16.38;9.30;;;14.60;99.90;;;;;;4965051;28;20050;-78
2023/05/11 00:21:17;;;;;;;17.42;9.73;;;14.60;99.90;;;;;;5000090;28;20130;-78
2023/05/11 00:23:42;;;;;;;13.88;8.68;;;14.60;99.90;;;;;;5000267;28;20057;-78
2023/05/11 00:26:08;;;;;;;15.13;9.38;;;14.60;99.90;;;;;;5000376;28;20038;-78
2023/05/11 00:28:34;;;;;;;28.88;9.80;;;14.60;99.90;;;;;;5000036;28;20509;-77
2023/05/11 00:30:59;;;;;;;23.92;10.98;;;14.30;99.90;;;;;;5000007;28;20477;-77
2023/05/11 00:33:25;;;;;;;18.30;9.70;;;14.20;99.90;;;;;;4999929;28;20132;-77
2023/05/11 00:35:51;;;;;;;19.70;10.05;;;14.10;99.90;;;;;;4999958;28;20041;-77
2023/05/11 00:38:17;;;;;;;17.00;9.52;;;14.20;99.90;;;;;;5000113;28;20046;-78
2023/05/11 00:40:42;;;;;;;17.48;9.73;;;14.30;99.90;;;;;;4999355;28;20317;-78
2023/05/11 00:43:08;;;;;;;19.88;10.27;;;14.40;99.90;;;;;;4982541;28;20061;-78
2023/05/11 00:45:35;;;;;;;14.75;8.48;;;14.40;99.90;;;;;;4999904;28;20074;-78
2023/05/11 00:48:00;;;;;;;18.38;10.52;;;14.50;99.90;;;;;;4999986;28;20101;-77
2023/05/11 00:50:26;;;;;;;23.88;9.93;;;14.30;99.90;;;;;;4982300;28;20073;-78
2023/05/11 00:52:53;;;;;;;16.02;9.73;;;14.20;99.90;;;;;;4999675;28;20054;-77
2023/05/11 00:55:20;;;;;;;13.13;8.43;;;14.30;99.90;;;;;;4982214;28;20049;-77
2023/05/11 00:57:47;;;;;;;13.25;8.65;;;14.30;99.90;;;;;;4982576;28;20058;-77
2023/05/11 01:00:13;;;;;;;17.98;9.45;;;14.30;99.90;;;;;;4999664;28;20042;-78
2023/05/11 01:02:39;;;;;;;26.33;11.02;;;14.40;99.90;;;;;;4999348;28;20042;-78
2023/05/11 01:05:06;;;;;;;17.27;10.40;;;14.40;99.90;;;;;;4999405;28;20034;-78
2023/05/11 01:07:57;;;;;;;20.25;10.60;;;14.40;99.90;;;;;;4982104;28;20047;-78
2023/05/11 01:10:37;;;;;;;18.15;9.85;;;14.40;99.90;;;;;;4973933;28;20062;-77
2023/05/11 01:13:31;;;;;;;16.55;10.38;;;14.40;99.90;;;;;;4999262;28;20034;-78
2023/05/11 01:15:58;;;;;;;19.88;10.90;;;14.40;99.90;;;;;;4999139;28;20446;-78
2023/05/11 01:18:28;;;;;;;14.93;9.35;;;14.50;99.90;;;;;;4999348;28;20038;-78
2023/05/11 01:21:01;;;;;;;18.08;10.23;;;14.50;99.90;;;;;;4999523;28;20042;-78
2023/05/11 01:23:56;;;;;;;15.50;10.05;;;14.50;99.90;;;;;;4999048;28;20070;-77
2023/05/11 01:26:34;;;;;;;17.10;10.00;;;14.50;99.90;;;;;;4998951;28;20121;-77
2023/05/11 01:29:16;;;;;;;15.55;9.38;;;14.50;99.90;;;;;;4999034;28;20046;-78
2023/05/11 01:31:46;;;;;;;17.52;10.05;;;14.50;99.90;;;;;;4998433;28;20049;-77
2023/05/11 01:34:34;;;;;;;19.67;9.65;;;14.50;99.90;;;;;;4998698;28;20048;-78
2023/05/11 01:37:14;;;;;;;15.23;9.02;;;14.40;99.90;;;;;;4998039;28;20051;-77
2023/05/11 01:39:51;;;;;;;19.33;10.77;;;14.30;99.90;;;;;;4998690;28;20038;-77
2023/05/11 01:42:20;;;;;;;19.70;10.52;;;14.30;99.90;;;;;;4998907;28;20376;-77
2023/05/11 01:44:50;;;;;;;20.15;10.40;;;14.30;99.90;;;;;;4998370;28;20055;-77
2023/05/11 01:47:17;;;;;;;21.27;10.05;;;14.30;99.90;;;;;;4998744;28;20042;-78
2023/05/11 01:49:44;;;;;;;21.05;10.65;;;14.30;99.90;;;;;;4981356;28;20100;-77
2023/05/11 01:52:10;;;;;;;19.92;10.05;;;14.30;99.90;;;;;;4998428;28;20447;-78
2023/05/11 01:54:39;;;;;;;22.77;10.07;;;14.30;99.90;;;;;;4998561;28;20038;-77
2023/05/11 01:57:05;;;;;;;17.67;9.63;;;14.30;99.90;;;;;;4998296;28;20327;-78
2023/05/11 01:59:32;;;;;;;21.63;9.88;;;14.30;99.90;;;;;;4998676;28;20053;-77
2023/05/11 02:01:59;;;;;;;21.13;10.23;;;14.30;99.90;;;;;;4998242;28;20046;-77
2023/05/11 02:04:27;;;;;;;25.08;10.52;;;14.30;99.90;;;;;;4998483;28;20069;-77
2023/05/11 02:06:55;;;;;;;16.10;9.57;;;14.30;99.90;;;;;;4981263;28;20054;-77
2023/05/11 02:09:22;;;;;;;19.33;9.70;;;14.30;99.90;;;;;;4997999;28;20129;-88
2023/05/11 02:11:50;;;;;;;15.63;9.20;;;14.20;99.90;;;;;;4980789;28;20046;-78
2023/05/11 02:14:18;;;;;;;18.00;9.88;;;14.20;99.90;;;;;;4998165;28;20042;-79
2023/05/11 02:16:46;;;;;;;16.65;9.38;;;14.20;99.90;;;;;;4998339;28;20154;-78
2023/05/11 02:19:13;;;;;;;15.02;10.20;;;14.20;99.90;;;;;;4998066;28;20039;-80
2023/05/11 02:21:42;;;;;;;16.38;9.88;;;14.20;99.90;;;;;;4998233;28;20049;-77
2023/05/11 02:24:08;;;;;;;16.35;10.05;;;14.20;99.90;;;;;;4997807;28;20051;-78
2023/05/11 02:26:34;;;;;;;14.18;9.30;;;14.20;99.90;;;;;;4980601;28;20042;-77
2023/05/11 02:28:59;;;;;;;14.32;9.23;;;14.30;99.90;;;;;;4997757;28;20100;-78
2023/05/11 02:31:31;;;;;;;16.73;9.95;;;14.30;99.90;;;;;;4998141;28;20101;-78
2023/05/11 02:34:08;;;;;;;14.90;9.02;;;14.30;99.90;;;;;;4997852;28;20074;-78
2023/05/11 02:36:37;;;;;;;17.95;9.60;;;14.30;99.90;;;;;;4997870;28;20076;-77
2023/05/11 02:39:08;;;;;;;18.27;9.48;;;14.40;99.90;;;;;;4997484;28;20093;-78
2023/05/11 02:41:38;;;;;;;14.90;8.73;;;14.30;99.90;;;;;;4997163;28;20447;-78
2023/05/11 02:44:07;;;;;;;12.40;8.07;;;14.30;99.90;;;;;;4997608;28;20077;-77
2023/05/11 02:46:37;;;;;;;13.02;8.07;;;14.30;99.90;;;;;;4980422;28;20168;-77
2023/05/11 02:49:06;;;;;;;16.38;9.07;;;14.30;99.90;;;;;;4997518;28;20042;-77
2023/05/11 02:51:35;;;;;;;17.50;9.05;;;14.20;99.90;;;;;;4997339;28;20042;-78
2023/05/11 02:54:04;;;;;;;16.50;8.70;;;14.20;99.90;;;;;;4997430;28;20442;-77
2023/05/11 02:56:30;;;;;;;13.93;7.82;;;14.20;99.90;;;;;;4997547;28;20080;-77
2023/05/11 02:58:55;;;;;;;19.10;9.43;;;14.10;99.90;;;;;;4997417;28;20038;-78
2023/05/11 03:01:21;;;;;;;17.58;8.45;;;14.10;99.90;;;;;;4997562;28;20049;-78
2023/05/11 03:03:47;;;;;;;18.05;9.27;;;14.10;99.90;;;;;;4997173;28;20046;-77
2023/05/11 03:06:13;;;;;;;17.92;9.48;;;14.10;99.90;;;;;;4979981;28;20042;-78
2023/05/11 03:08:40;;;;;;;15.88;8.43;;;14.20;99.90;;;;;;4997134;28;20030;-78
2023/05/11 03:11:07;;;;;;;20.08;10.63;;;14.20;99.90;;;;;;4997049;28;20034;-78
2023/05/11 03:13:33;;;;;;;29.33;12.23;;;14.10;99.90;;;;;;4997071;28;20104;-78
2023/05/11 03:16:01;;;;;;;33.22;14.02;;;14.20;99.90;;;;;;4979911;28;20050;-78
2023/05/11 03:18:28;;;;;;;28.50;12.95;;;14.10;99.90;;;;;;4980116;28;20050;-78
2023/05/11 03:20:55;;;;;;;35.22;14.88;;;14.10;99.90;;;;;;4996979;28;20069;-77
2023/05/11 03:23:21;;;;;;;42.97;15.63;;;14.10;99.90;;;;;;4997183;28;20046;-78
2023/05/11 03:25:47;;;;;;;33.38;15.00;;;14.10;99.90;;;;;;4997190;28;20030;-78
2023/05/11 03:28:14;;;;;;;33.78;14.70;;;14.20;99.90;;;;;;4997167;28;20034;-78
2023/05/11 03:30:43;;;;;;;40.05;16.58;;;14.20;99.90;;;;;;4996951;28;20074;-78
2023/05/11 03:33:09;;;;;;;42.03;16.98;;;14.20;99.90;;;;;;4996873;28;20121;-79
2023/05/11 03:35:36;;;;;;;73.78;18.40;;;14.30;99.90;;;;;;4979854;28;20165;-78
2023/05/11 03:38:05;;;;;;;63.95;17.85;;;14.30;99.90;;;;;;4997075;28;20049;-78
2023/05/11 03:40:32;;;;;;;41.50;17.50;;;14.30;99.90;;;;;;4996575;28;20100;-78
2023/05/11 03:43:00;;;;;;;41.78;17.73;;;14.20;99.90;;;;;;4996579;28;20156;-78
2023/05/11 03:45:27;;;;;;;51.40;18.13;;;14.20;99.90;;;;;;4980140;28;20490;-77
2023/05/11 03:47:55;;;;;;;53.70;17.98;;;14.30;99.90;;;;;;4996689;28;20431;-78
2023/05/11 03:50:21;;;;;;;42.97;17.85;;;14.30;99.90;;;;;;4997213;28;20047;-77
2023/05/11 03:52:48;;;;;;;64.38;21.50;;;14.30;99.90;;;;;;4996893;28;20042;-78
2023/05/11 03:55:13;;;;;;;54.83;19.95;;;14.40;99.90;;;;;;5000875;28;20053;-78
2023/05/11 03:57:39;;;;;;;50.10;19.13;;;14.30;99.90;;;;;;4983425;28;20046;-78
2023/05/11 04:00:07;;;;;;;48.25;18.80;;;14.20;99.90;;;;;;4967684;28;20061;-78
2023/05/11 04:02:33;;;;;;;48.72;18.77;;;14.30;99.90;;;;;;5000381;28;20126;-78
2023/05/11 04:05:03;;;;;;;48.17;18.48;;;14.30;99.90;;;;;;5000583;28;20046;-78
2023/05/11 04:07:31;;;;;;;57.30;20.80;;;14.40;99.90;;;;;;5000562;28;20054;-78
2023/05/11 04:09:57;;;;;;;46.00;17.70;;;14.30;99.90;;;;;;4983045;28;20050;-78
2023/05/11 04:12:22;;;;;;;62.75;20.80;;;14.40;99.90;;;;;;5000665;28;20049;-78
2023/05/11 04:14:48;;;;;;;50.53;18.63;;;14.40;99.90;;;;;;4983057;28;20042;-78
2023/05/11 04:17:14;;;;;;;55.20;20.20;;;14.50;99.90;;;;;;5000430;28;20042;-79
2023/05/11 04:19:39;;;;;;;56.80;19.95;;;14.50;99.90;;;;;;5000520;28;20313;-78
2023/05/11 04:22:05;;;;;;;57.67;19.63;;;14.40;99.90;;;;;;5000220;28;20081;-78
2023/05/11 04:24:31;;;;;;;57.00;19.67;;;14.20;99.90;;;;;;4982887;28;20079;-78
2023/05/11 04:26:56;;;;;;;69.43;20.83;;;14.20;99.90;;;;;;4982870;28;20076;-77
2023/05/11 04:29:22;;;;;;;50.22;19.23;;;14.30;99.90;;;;;;5000155;28;20034;-78
2023/05/11 04:31:48;;;;;;;79.80;22.52;;;14.40;99.90;;;;;;4978077;28;20046;-78
2023/05/11 04:34:13;;;;;;;83.70;21.85;;;14.30;99.90;;;;;;4997911;28;20050;-79
2023/05/11 04:36:39;;;;;;;89.05;21.95;;;14.30;99.90;;;;;;4999676;28;20042;-78
2023/05/11 04:39:05;;;;;;;103.63;23.98;;;14.30;99.90;;;;;;4982730;28;20054;-78
2023/05/11 04:41:30;;;;;;;116.78;24.33;;;14.20;99.90;;;;;;4999708;28;20038;-77
2023/05/11 04:43:56;;;;;;;70.80;22.58;;;14.30;99.90;;;;;;4982208;28;20108;-78
2023/05/11 04:46:22;;;;;;;63.88;21.00;;;14.30;99.90;;;;;;5000065;28;20038;-78
2023/05/11 04:48:48;;;;;;;65.70;21.95;;;14.40;99.90;;;;;;4999667;28;20343;-78
2023/05/11 04:51:14;;;;;;;71.97;21.90;;;14.30;99.90;;;;;;4999886;28;20327;-80
2023/05/11 04:53:40;;;;;;;82.72;22.23;;;14.30;99.90;;;;;;4999579;28;20050;-78
2023/05/11 04:56:05;;;;;;;52.78;18.33;;;14.30;99.90;;;;;;4999810;28;20104;-78
2023/05/11 04:58:31;;;;;;;48.80;18.23;;;14.20;99.90;;;;;;4999441;28;20042;-78
2023/05/11 05:00:57;;;;;;;105.13;22.77;;;14.20;99.90;;;;;;4999567;28;20045;-78
2023/05/11 05:03:22;;;;;;;46.03;17.42;;;14.20;99.90;;;;;;4999500;28;20304;-78
2023/05/11 05:05:48;;;;;;;80.15;20.63;;;14.10;99.90;;;;;;4998161;28;20039;-77
2023/05/11 05:08:14;;;;;;;59.30;18.92;;;14.10;99.90;;;;;;4982176;28;20113;-77
2023/05/11 05:10:39;;;;;;;55.50;18.23;;;14.10;99.90;;;;;;4981936;28;20070;-77
2023/05/11 05:13:05;;;;;;;54.38;17.27;;;14.10;99.90;;;;;;4999324;28;20046;-78
2023/05/11 05:15:31;;;;;;;55.92;18.58;;;14.20;99.90;;;;;;4999015;28;20042;-78
2023/05/11 05:17:56;;;;;;;58.78;18.98;;;14.20;99.90;;;;;;4999467;28;20451;-78
2023/05/11 05:20:22;;;;;;;61.58;18.90;;;14.10;99.90;;;;;;4999324;28;20042;-78
2023/05/11 05:22:48;;;;;;;54.65;19.13;;;14.10;99.90;;;;;;4999103;28;20402;-78
2023/05/11 05:25:13;;;;;;;61.50;20.02;;;14.20;99.90;;;;;;4999111;28;20030;-78
2023/05/11 05:27:39;;;;;;;62.28;20.10;;;14.30;99.90;;;;;;4999174;28;20113;-78
2023/05/11 05:30:05;;;;;;;61.85;20.42;;;14.30;99.90;;;;;;4998869;28;20046;-78
2023/05/11 05:32:31;;;;;;;67.13;20.65;;;14.40;99.90;;;;;;4999020;28;20119;-78
2023/05/11 05:34:57;;;;;;;74.22;21.42;;;14.40;99.90;;;;;;4998946;28;20077;-78
2023/05/11 05:37:22;;;;;;;71.68;21.83;;;14.40;99.90;;;;;;4998706;28;20046;-78
2023/05/11 05:39:48;;;;;;;75.50;21.00;;;14.50;99.90;;;;;;4981627;28;20046;-78
2023/05/11 05:42:14;;;;;;;72.97;19.67;;;14.50;99.90;;;;;;4981327;28;20126;-77
2023/05/11 05:44:40;;;;;;;53.15;17.60;;;14.40;99.90;;;;;;4998421;28;20339;-78
2023/05/11 05:47:05;;;;;;;51.97;17.33;;;14.40;99.90;;;;;;4981888;28;20092;-78
2023/05/11 05:49:31;;;;;;;55.90;16.73;;;14.40;99.90;;;;;;4998865;28;20114;-77
2023/05/11 05:51:57;;;;;;;47.83;15.85;;;14.40;99.90;;;;;;4981586;28;20049;-78
2023/05/11 05:54:22;;;;;;;47.97;16.90;;;14.30;99.90;;;;;;4998399;28;20038;-78
2023/05/11 05:56:49;;;;;;;48.90;16.88;;;14.30;99.90;;;;;;4998713;28;20129;-78
2023/05/11 05:59:15;;;;;;;56.42;17.50;;;14.40;99.90;;;;;;4998380;28;20049;-78
2023/05/11 06:01:44;;;;;;;36.90;15.48;;;14.50;99.90;;;;;;4998459;28;20046;-78
2023/05/11 06:04:13;;;;;;;30.25;13.77;;;14.40;99.90;;;;;;4980981;28;20050;-78
2023/05/11 06:06:39;;;;;;;39.88;15.00;;;14.40;99.90;;;;;;4998336;28;20544;-78
2023/05/11 06:09:05;;;;;;;32.35;12.80;;;14.30;99.90;;;;;;4981299;28;20116;-78
2023/05/11 06:11:31;;;;;;;34.22;13.48;;;14.30;99.90;;;;;;4997972;28;20038;-78
2023/05/11 06:13:56;;;;;;;30.17;13.50;;;14.40;99.90;;;;;;4981109;28;20458;-78
2023/05/11 06:16:24;;;;;;;30.27;13.48;;;14.40;99.90;;;;;;4997894;28;20494;-78
2023/05/11 06:18:50;;;;;;;36.80;15.27;;;14.50;99.90;;;;;;4998037;28;20047;-78
2023/05/11 06:21:15;;;;;;;36.40;13.52;;;14.50;99.90;;;;;;4997962;28;20335;-78
2023/05/11 06:23:41;;;;;;;32.22;12.82;;;14.40;99.90;;;;;;4980893;28;20042;-78
2023/05/11 06:26:07;;;;;;;26.52;12.00;;;14.50;99.90;;;;;;4964629;28;20384;-78
2023/05/11 06:28:32;;;;;;;21.63;10.63;;;14.60;99.90;;;;;;4997875;28;20042;-78
2023/05/11 06:30:58;;;;;;;26.60;11.90;;;14.60;99.90;;;;;;4998089;28;20049;-77
2023/05/11 06:33:24;;;;;;;28.83;12.80;;;14.60;99.90;;;;;;4997853;28;20415;-78
2023/05/11 06:35:50;;;;;;;27.83;12.25;;;14.70;99.90;;;;;;4998010;28;20331;-78
2023/05/11 06:38:16;;;;;;;33.45;13.10;;;14.60;99.90;;;;;;4997631;28;20046;-77
2023/05/11 06:40:43;;;;;;;32.53;12.93;;;14.60;99.90;;;;;;4997537;28;20046;-78
2023/05/11 06:43:09;;;;;;;33.08;13.52;;;14.70;99.90;;;;;;4980191;28;20058;-78
2023/05/11 06:45:35;;;;;;;39.35;14.70;;;14.70;99.90;;;;;;4997709;28;20042;-78
2023/05/11 06:48:02;;;;;;;41.20;14.88;;;14.80;99.90;;;;;;4998141;28;20043;-78
2023/05/11 06:50:27;;;;;;;35.10;13.80;;;14.70;99.90;;;;;;4997661;28;20053;-78
2023/05/11 06:52:53;;;;;;;41.08;15.63;;;14.80;99.90;;;;;;4997462;28;20339;-78
2023/05/11 06:55:19;;;;;;;45.05;15.77;;;14.90;99.90;;;;;;4980317;28;20050;-78
2023/05/11 06:57:45;;;;;;;55.10;17.45;;;14.90;99.90;;;;;;4997035;28;20042;-78
2023/05/11 07:00:11;;;;;;;47.28;17.08;;;14.90;99.90;;;;;;4997356;28;20117;-77
2023/05/11 07:02:36;;;;;;;52.90;17.27;;;14.70;99.90;;;;;;4997486;28;20074;-78
2023/05/11 07:05:02;;;;;;;45.15;17.27;;;14.70;99.90;;;;;;4997248;28;20128;-77
2023/05/11 07:07:28;;;;;;;35.17;15.70;;;14.80;99.90;;;;;;4997291;28;20034;-77
2023/05/11 07:09:54;;;;;;;40.92;16.52;;;14.80;99.90;;;;;;4996830;28;20513;-78
2023/05/11 07:12:19;;;;;;;35.47;15.75;;;15.00;99.90;;;;;;4997044;28;20042;-77
2023/05/11 07:14:45;;;;;;;44.60;17.02;;;15.10;99.90;;;;;;4997074;28;20046;-78
2023/05/11 07:17:10;;;;;;;45.60;17.38;;;15.30;99.90;;;;;;4979880;28;20053;-77
2023/05/11 07:19:36;;;;;;;38.53;16.00;;;15.20;99.90;;;;;;4997542;28;20109;-77
2023/05/11 07:22:02;;;;;;;35.38;16.05;;;15.10;99.90;;;;;;4997082;28;20327;-77
2023/05/11 07:24:28;;;;;;;47.40;17.85;;;15.20;99.90;;;;;;4997088;28;20057;-77
2023/05/11 07:26:54;;;;;;;29.80;14.05;;;15.20;99.90;;;;;;4996814;28;20038;-77
2023/05/11 07:29:20;;;;;;;33.40;16.30;;;15.20;99.90;;;;;;4996797;28;20042;-77
2023/05/11 07:31:47;;;;;;;35.97;16.15;;;15.30;99.90;;;;;;4996963;28;20449;-77
2023/05/11 07:34:12;;;;;;;33.47;15.45;;;15.10;99.90;;;;;;4997075;28;20046;-77
2023/05/11 07:36:38;;;;;;;37.63;16.25;;;15.10;99.90;;;;;;4979988;28;20069;-77
2023/05/11 07:39:04;;;;;;;31.45;15.45;;;15.10;99.90;;;;;;4997095;28;20042;-77
2023/05/11 07:41:30;;;;;;;35.72;15.88;;;15.20;99.90;;;;;;4979570;28;20181;-77
2023/05/11 07:43:55;;;;;;;33.65;15.65;;;15.20;99.90;;;;;;4996657;28;20447;-77
2023/05/11 07:46:21;;;;;;;38.00;15.85;;;15.20;99.90;;;;;;4996895;28;20495;-77
2023/05/11 07:48:47;;;;;;;30.88;15.07;;;15.20;99.90;;;;;;4996789;28;20042;-78
2023/05/11 07:51:13;;;;;;;32.50;14.85;;;15.20;99.90;;;;;;4997093;28;20166;-78
2023/05/11 07:53:39;;;;;;;33.75;16.10;;;15.10;99.90;;;;;;4997004;28;20049;-77
2023/05/11 07:56:05;;;;;;;31.73;14.48;;;15.20;99.90;;;;;;4996686;28;20038;-78
2023/05/11 07:58:31;;;;;;;32.00;15.10;;;15.20;99.90;;;;;;4993961;28;20061;-78
2023/05/11 08:00:57;;;;;;;31.13;15.55;;;15.20;99.90;;;;;;4977342;28;20046;-77
2023/05/11 08:03:23;;;;;;;30.38;14.80;;;15.20;99.90;;;;;;4977499;28;20042;-77
2023/05/11 08:05:48;;;;;;;33.00;16.08;;;15.20;99.90;;;;;;4977356;28;20089;-77
2023/05/11 08:08:14;;;;;;;35.92;16.58;;;15.30;99.90;;;;;;4977507;28;20118;-77
2023/05/11 08:10:41;;;;;;;31.55;16.00;;;15.40;99.90;;;;;;4976765;28;20043;-78
2023/05/11 08:13:06;;;;;;;32.15;15.77;;;15.40;99.90;;;;;;4977178;28;20447;-78
2023/05/11 08:15:32;;;;;;;30.98;15.70;;;15.20;99.90;;;;;;4977250;28;20086;-78
2023/05/11 08:17:59;;;;;;;30.52;15.38;;;15.30;99.90;;;;;;4977292;28;20125;-77
2023/05/11 08:20:25;;;;;;;36.08;16.33;;;15.30;99.90;;;;;;4977175;28;20058;-78
2023/05/11 08:22:51;;;;;;;29.08;14.40;;;15.30;99.90;;;;;;4960037;28;20047;-77
2023/05/11 08:25:16;;;;;;;31.48;15.02;;;15.10;99.90;;;;;;4977010;28;20138;-72
2023/05/11 08:27:42;;;;;;;31.38;16.13;;;15.20;99.90;;;;;;4977131;28;20420;-77
2023/05/11 08:30:08;;;;;;;35.72;15.48;;;15.30;99.90;;;;;;4979021;28;20038;-74
2023/05/11 08:32:35;;;;;;;32.33;16.48;;;15.30;99.90;;;;;;4981318;28;20440;-75
2023/05/11 08:35:02;;;;;;;28.38;15.13;;;15.40;99.90;;;;;;4963130;28;20042;-75
2023/05/11 08:37:28;;;;;;;33.92;16.52;;;15.40;99.90;;;;;;4993651;28;20039;-77
2023/05/11 08:39:54;;;;;;;32.10;16.20;;;15.40;99.90;;;;;;4996868;28;20041;-76
2023/05/11 08:42:22;;;;;;;34.10;17.83;;;15.40;99.90;;;;;;4999882;28;20042;-75
2023/05/11 08:44:48;;;;;;;33.42;17.42;;;15.40;99.90;;;;;;4999648;28;20050;-75
2023/05/11 08:47:14;;;;;;;37.45;18.55;;;15.40;99.90;;;;;;5000230;28;20093;-75
2023/05/11 08:49:40;;;;;;;31.95;16.88;;;15.40;99.90;;;;;;4999629;28;20038;-75
2023/05/11 08:52:06;;;;;;;34.25;17.45;;;15.50;99.90;;;;;;4999929;28;20082;-73
2023/05/11 08:54:32;;;;;;;32.42;17.23;;;15.50;99.90;;;;;;4998484;28;20125;-74
2023/05/11 08:57:00;;;;;;;27.77;15.73;;;15.60;99.90;;;;;;4999719;28;20092;-74
2023/05/11 08:59:27;;;;;;;29.85;16.83;;;15.60;99.90;;;;;;4999778;28;20070;-73
2023/05/11 09:01:54;;;;;;;31.17;16.95;;;15.50;99.90;;;;;;4999581;28;20050;-74
2023/05/11 09:04:22;;;;;;;30.80;16.25;;;15.50;99.90;;;;;;4999580;28;20039;-74
2023/05/11 09:06:49;;;;;;;27.98;15.82;;;15.50;99.90;;;;;;4999307;28;20436;-73
2023/05/11 09:09:17;;;;;;;33.78;16.83;;;15.50;99.90;;;;;;4998495;28;20148;-74
2023/05/11 09:11:44;;;;;;;28.73;15.93;;;15.50;99.90;;;;;;4999134;28;20312;-74
2023/05/11 09:14:11;;;;;;;31.48;16.80;;;15.50;99.90;;;;;;4999377;28;20053;-74
2023/05/11 09:16:37;;;;;;;27.98;16.05;;;15.60;99.90;;;;;;4999244;28;20046;-74
2023/05/11 09:19:03;;;;;;;35.85;17.60;;;15.80;99.90;;;;;;4999428;28;20046;-74
2023/05/11 09:21:31;;;;;;;28.38;16.55;;;15.80;99.90;;;;;;4999093;28;20126;-74
2023/05/11 09:23:58;;;;;;;26.63;16.08;;;15.90;99.90;;;;;;4998970;28;20479;-74
2023/05/11 09:26:27;;;;;;;33.67;18.45;;;15.90;99.90;;;;;;4999285;28;20089;-73
2023/05/11 09:28:56;;;;;;;30.15;17.20;;;16.00;99.90;;;;;;4999036;28;20118;-72
2023/05/11 09:31:38;;;;;;;33.45;17.10;;;15.60;99.90;;;;;;4999231;28;20042;-71
2023/05/11 09:34:20;;;;;;;28.98;16.58;;;15.60;99.90;;;;;;4999141;28;20046;-73
2023/05/11 09:36:54;;;;;;;29.20;15.32;;;15.80;99.90;;;;;;4999086;28;20042;-73
2023/05/11 09:39:34;;;;;;;27.52;15.93;;;15.90;99.90;;;;;;4999025;28;20096;-72
2023/05/11 09:42:20;;;;;;;32.70;17.02;;;16.00;99.90;;;;;;4998522;28;20054;-72
2023/05/11 09:44:46;;;;;;;29.63;15.98;;;16.00;99.90;;;;;;4998487;28;20057;-73
2023/05/11 09:47:21;;;;;;;30.42;16.77;;;16.00;99.90;;;;;;4998796;28;20403;-73
2023/05/11 09:49:47;;;;;;;30.85;16.27;;;15.90;99.90;;;;;;4997966;28;20344;-73
2023/05/11 09:52:14;;;;;;;31.35;16.63;;;16.00;99.90;;;;;;4997970;28;20424;-72
2023/05/11 09:54:46;;;;;;;33.67;17.73;;;16.10;99.90;;;;;;4998644;28;20034;-73
2023/05/11 09:57:23;;;;;;;28.83;14.32;;;16.20;99.90;;;;;;4998856;28;20121;-73
2023/05/11 09:59:49;;;;;;;31.55;16.30;;;16.00;99.90;;;;;;4998341;28;20046;-73
2023/05/11 10:02:28;;;;;;;24.95;14.73;;;16.10;99.90;;;;;;4998575;28;20030;-73
2023/05/11 10:04:56;;;;;;;26.60;13.93;;;16.30;99.90;;;;;;4998715;28;20042;-72
2023/05/11 10:07:26;;;;;;;26.02;14.50;;;16.50;99.90;;;;;;4998292;28;20356;-73
2023/05/11 10:09:54;;;;;;;24.25;13.90;;;16.80;99.90;;;;;;4998595;28;20070;-73
2023/05/11 10:12:22;;;;;;;27.10;15.00;;;16.90;99.90;;;;;;4997925;28;20121;-72
2023/05/11 10:14:51;;;;;;;23.77;12.57;;;16.80;99.90;;;;;;4998380;28;20050;-71
2023/05/11 10:17:19;;;;;;;21.98;12.90;;;16.80;99.90;;;;;;4998107;28;20049;-70
2023/05/11 10:19:47;;;;;;;23.70;12.00;;;16.80;99.90;;;;;;4998297;28;20346;-71
2023/05/11 10:22:15;;;;;;;26.52;14.45;;;16.70;99.90;;;;;;4998109;28;20126;-72
2023/05/11 10:24:41;;;;;;;21.85;12.68;;;16.70;99.90;;;;;;4997988;28;20043;-79
2023/05/11 10:27:07;;;;;;;21.10;12.63;;;16.80;99.90;;;;;;4985067;28;20034;-72
2023/05/11 10:29:34;;;;;;;17.85;11.63;;;16.90;99.90;;;;;;4997616;28;20048;-72
2023/05/11 10:32:01;;;;;;;25.42;14.55;;;17.00;99.90;;;;;;4987561;28;20383;-72
2023/05/11 10:34:27;;;;;;;26.33;14.80;;;17.10;99.90;;;;;;4978278;28;20057;-72
2023/05/11 10:36:53;;;;;;;28.80;15.40;;;17.10;99.90;;;;;;4978371;28;20355;-72
2023/05/11 10:39:20;;;;;;;30.98;16.25;;;17.10;99.90;;;;;;4978143;28;20078;-70
2023/05/11 10:41:54;;;;;;;29.52;15.55;;;17.10;99.90;;;;;;4977816;28;20073;-73
2023/05/11 10:44:39;;;;;;;31.42;15.15;;;17.00;99.90;;;;;;4977458;28;20058;-73
2023/05/11 10:47:07;;;;;;;26.25;14.85;;;17.30;99.90;;;;;;4986642;28;20043;-74
2023/05/11 10:50:01;;;;;;;26.60;14.70;;;17.50;99.90;;;;;;4988928;28;20420;-73
2023/05/11 10:52:48;;;;;;;22.98;12.57;;;17.70;99.90;;;;;;4996017;28;20328;-73
2023/05/11 10:55:51;;;;;;;23.23;13.05;;;18.00;99.90;;;;;;4997133;28;20045;-73
2023/05/11 10:58:40;;;;;;;19.00;10.73;;;18.20;99.90;;;;;;4997570;28;20038;-71
2023/05/11 11:01:21;;;;;;;15.07;9.00;;;18.20;99.90;;;;;;4997667;28;20045;-72
2023/05/11 11:04:04;;;;;;;12.73;7.32;;;18.80;99.90;;;;;;4997627;28;20054;-75
2023/05/11 11:06:31;;;;;;;20.85;8.55;;;19.00;99.90;;;;;;4999048;28;20423;-74
2023/05/11 11:09:03;;;;;;;17.27;8.95;;;19.00;99.90;;;;;;4997228;28;20047;-73
2023/05/11 11:11:41;;;;;;;12.13;7.28;;;19.00;99.90;;;;;;4997018;28;20034;-78
2023/05/11 11:14:08;;;;;;;12.82;7.63;;;19.30;99.90;;;;;;4985673;28;20424;-75
2023/05/11 11:16:35;;;;;;;17.08;8.48;;;19.40;99.90;;;;;;4983026;28;20065;-75
2023/05/11 11:19:29;;;;;;;14.82;8.60;;;19.40;99.90;;;;;;4997235;28;20093;-76
2023/05/11 11:21:58;;;;;;;14.05;8.23;;;19.60;99.90;;;;;;4997302;28;20046;-75
2023/05/11 11:24:36;;;;;;;18.27;10.23;;;19.50;99.90;;;;;;4996961;28;20121;-75
2023/05/11 11:27:03;;;;;;;17.83;10.50;;;19.60;99.90;;;;;;4996985;28;20562;-75
2023/05/11 11:29:29;;;;;;;17.35;10.25;;;19.60;99.90;;;;;;4997281;28;20042;-75
2023/05/11 11:32:15;;;;;;;16.20;9.68;;;19.70;99.90;;;;;;4997023;28;20503;-75
2023/05/11 11:34:41;;;;;;;20.25;10.68;;;19.90;99.90;;;;;;4996787;28;20042;-75
2023/05/11 11:37:07;;;;;;;16.40;9.75;;;20.10;99.90;;;;;;4996898;28;20038;-75
2023/05/11 11:39:42;;;;;;;17.08;9.88;;;19.90;99.90;;;;;;4996882;28;20031;-73
2023/05/11 11:42:16;;;;;;;14.60;8.35;;;19.70;99.90;;;;;;4979611;28;20439;-72
2023/05/11 11:44:43;;;;;;;12.00;7.88;;;19.70;99.90;;;;;;4996665;28;20339;-73
2023/05/11 11:47:10;;;;;;;13.05;7.35;;;19.90;99.90;;;;;;4997034;28;20444;-73
2023/05/11 11:49:37;;;;;;;12.80;7.20;;;19.80;99.90;;;;;;4997179;28;20045;-74
2023/05/11 11:52:05;;;;;;;10.05;6.18;;;19.90;99.90;;;;;;4998465;28;20372;-73
2023/05/11 11:54:43;;;;;;;10.57;6.80;;;19.80;99.90;;;;;;4997085;28;20056;-72
2023/05/11 11:57:28;;;;;;;10.23;6.50;;;19.90;99.90;;;;;;4996801;28;20041;-72
2023/05/11 11:59:54;;;;;;;12.80;7.68;;;20.00;99.90;;;;;;4996972;28;20100;-73
2023/05/11 12:02:21;;;;;;;10.73;6.03;;;19.70;99.90;;;;;;4996545;28;20050;-71
2023/05/11 12:05:18;;;;;;;9.25;5.88;;;19.50;99.90;;;;;;4979358;28;20054;-83
2023/05/11 12:07:46;;;;;;;10.40;6.57;;;19.40;99.90;;;;;;4971337;28;20059;-83
2023/05/11 12:10:13;;;;;;;11.13;6.88;;;18.80;99.90;;;;;;4979236;28;20335;-83
2023/05/11 12:12:43;;;;;;;9.98;6.43;;;18.10;99.90;;;;;;4979345;28;20053;-83
2023/05/11 12:15:22;;;;;;;7.47;4.65;;;17.70;99.90;;;;;;4981623;28;20045;-82
2023/05/11 12:17:48;;;;;;;10.52;4.28;;;17.50;99.90;;;;;;4983165;28;20395;-70
2023/05/11 12:20:16;;;;;;;5.97;3.25;;;17.60;99.90;;;;;;5000457;28;20121;-70
2023/05/11 12:22:43;;;;;;;4.93;3.30;;;18.00;99.90;;;;;;5000103;28;20462;-68
2023/05/11 12:25:13;;;;;;;4.00;2.50;;;18.10;99.90;;;;;;4985610;28;20039;-71
2023/05/11 12:27:49;;;;;;;6.15;2.75;;;18.30;99.90;;;;;;4999615;28;20041;-71
2023/05/11 12:30:22;;;;;;;3.25;2.50;;;18.30;99.90;;;;;;4992802;28;20388;-71
2023/05/11 12:32:48;;;;;;;5.22;2.47;;;18.50;99.90;;;;;;4980381;28;20042;-71
2023/05/11 12:35:20;;;;;;;3.72;2.35;;;18.60;99.90;;;;;;4980538;28;20055;-71
2023/05/11 12:37:47;;;;;;;2.88;1.90;;;18.50;99.90;;;;;;4980671;28;20050;-73